createdAt,value
2017-09-10T00:00:56.485Z,99.99
2017-09-10T00:01:56.539Z,99.99
2017-09-10T00:02:56.581Z,99.99
2017-09-10T00:03:56.584Z,99.99
2017-09-10T00:04:56.706Z,99.99
2017-09-10T00:05:57.433Z,99.99
2017-09-10T00:06:57.489Z,99.99
2017-09-10T00:07:57.879Z,99.99
2017-09-10T00:08:58.333Z,99.99
2017-09-10T00:09:58.009Z,99.99
2017-09-10T00:10:58.710Z,99.99
2017-09-10T00:11:58.449Z,99.99
2017-09-10T00:12:58.478Z,99.99
2017-09-10T00:13:58.801Z,99.99
2017-09-10T00:14:58.858Z,99.99
2017-09-10T00:15:59.230Z,99.99
2017-09-10T00:16:59.262Z,99.99
2017-09-10T00:17:59.377Z,99.99
2017-09-10T00:18:59.076Z,99.99
2017-09-10T00:19:59.536Z,99.99
2017-09-10T00:20:59.544Z,99.99
2017-09-10T00:21:59.899Z,99.99
2017-09-10T00:23:00.257Z,99.99
2017-09-10T00:23:59.951Z,99.99
2017-09-10T00:25:00.355Z,99.99
2017-09-10T00:26:00.082Z,99.99
2017-09-10T00:27:00.101Z,99.99
2017-09-10T00:28:00.164Z,99.99
2017-09-10T00:29:00.250Z,99.99
2017-09-10T00:30:00.663Z,99.99
2017-09-10T00:31:00.678Z,99.99
2017-09-10T00:32:01.349Z,99.99
2017-09-10T00:33:01.414Z,99.99
2017-09-10T00:34:02.086Z,99.99
2017-09-10T00:35:01.783Z,99.99
2017-09-10T00:36:02.249Z,99.99
2017-09-10T00:37:02.319Z,99.99
2017-09-10T00:38:02.378Z,99.99
2017-09-10T00:39:02.480Z,99.99
2017-09-10T00:40:02.818Z,99.99
2017-09-10T00:41:02.560Z,99.99
2017-09-10T00:42:03.243Z,99.99
2017-09-10T00:43:03.863Z,99.99
2017-09-10T00:44:03.973Z,99.99
2017-09-10T00:45:04.434Z,99.99
2017-09-10T00:46:04.071Z,99.99
2017-09-10T00:47:04.118Z,99.99
2017-09-10T00:48:04.185Z,99.99
2017-09-10T00:49:04.210Z,99.99
2017-09-10T00:50:04.331Z,99.99
2017-09-10T00:51:04.599Z,99.99
2017-09-10T00:52:04.647Z,99.99
2017-09-10T00:53:04.349Z,99.99
2017-09-10T00:54:05.103Z,99.99
2017-09-10T00:55:04.894Z,99.99
2017-09-10T00:56:05.172Z,99.99
2017-09-10T00:57:05.233Z,99.99
2017-09-10T00:58:05.305Z,99.99
2017-09-10T00:59:05.670Z,99.99
2017-09-10T01:00:05.668Z,99.99
2017-09-10T01:01:06.004Z,99.99
2017-09-10T01:02:06.202Z,99.99
2017-09-10T01:03:06.705Z,99.99
2017-09-10T01:04:06.126Z,99.99
2017-09-10T01:05:05.808Z,99.99
2017-09-10T01:06:06.509Z,99.99
2017-09-10T01:07:06.911Z,99.99
2017-09-10T01:08:06.617Z,99.99
2017-09-10T01:09:06.645Z,99.99
2017-09-10T01:10:07.175Z,99.99
2017-09-10T01:11:07.110Z,99.99
2017-09-10T01:12:07.145Z,99.99
2017-09-10T01:13:07.532Z,99.99
2017-09-10T01:14:07.222Z,99.99
2017-09-10T01:15:08.117Z,99.99
2017-09-10T01:16:08.200Z,99.99
2017-09-10T01:17:08.875Z,99.99
2017-09-10T01:18:08.964Z,99.99
2017-09-10T01:19:09.016Z,99.99
2017-09-10T01:20:09.374Z,99.99
2017-09-10T01:21:09.754Z,99.99
2017-09-10T01:22:09.809Z,99.99
2017-09-10T01:23:09.809Z,99.99
2017-09-10T01:24:09.510Z,99.99
2017-09-10T01:25:09.641Z,99.99
2017-09-10T01:26:09.909Z,99.99
2017-09-10T01:27:09.940Z,99.99
2017-09-10T01:28:10.008Z,99.99
2017-09-10T01:29:10.384Z,99.99
2017-09-10T01:30:10.379Z,99.99
2017-09-10T01:31:10.432Z,99.99
2017-09-10T01:32:10.146Z,99.99
2017-09-10T01:33:10.518Z,99.99
2017-09-10T01:34:10.544Z,99.99
2017-09-10T01:35:10.255Z,99.99
2017-09-10T01:36:10.633Z,99.99
2017-09-10T01:37:10.982Z,99.99
2017-09-10T01:38:11.026Z,99.99
2017-09-10T01:39:11.078Z,99.99
2017-09-10T01:40:11.077Z,99.99
2017-09-10T01:41:11.103Z,99.99
2017-09-10T01:42:10.809Z,99.99
2017-09-10T01:43:11.521Z,99.99
2017-09-10T01:44:11.224Z,99.99
2017-09-10T01:45:11.585Z,99.99
2017-09-10T01:46:11.284Z,99.99
2017-09-10T01:47:11.628Z,99.99
2017-09-10T01:48:11.680Z,99.99
2017-09-10T01:49:11.737Z,99.99
2017-09-10T01:50:11.772Z,99.99
2017-09-10T01:51:11.964Z,99.99
2017-09-10T01:52:12.017Z,99.99
2017-09-10T01:53:11.759Z,99.99
2017-09-10T01:54:11.846Z,99.99
2017-09-10T01:55:12.177Z,99.99
2017-09-10T01:56:12.681Z,99.99
2017-09-10T01:57:12.685Z,99.99
2017-09-10T01:58:12.717Z,99.99
2017-09-10T01:59:12.729Z,99.99
2017-09-10T02:00:12.764Z,99.99
2017-09-10T02:01:12.486Z,99.99
2017-09-10T02:02:12.826Z,99.99
2017-09-10T02:03:12.572Z,99.99
2017-09-10T02:04:12.919Z,99.99
2017-09-10T02:05:12.941Z,99.99
2017-09-10T02:06:12.951Z,99.99
2017-09-10T02:07:12.988Z,99.99
2017-09-10T02:08:13.016Z,99.99
2017-09-10T02:09:12.725Z,99.99
2017-09-10T02:10:12.751Z,99.99
2017-09-10T02:11:12.824Z,99.99
2017-09-10T02:12:13.147Z,99.99
2017-09-10T02:13:13.219Z,99.99
2017-09-10T02:14:12.980Z,99.99
2017-09-10T02:15:13.023Z,99.99
2017-09-10T02:16:13.385Z,99.99
2017-09-10T02:17:13.419Z,99.99
2017-09-10T02:18:13.812Z,99.99
2017-09-10T02:19:13.913Z,99.99
2017-09-10T02:20:14.337Z,99.99
2017-09-10T02:21:14.392Z,99.99
2017-09-10T02:22:14.406Z,99.99
2017-09-10T02:23:14.433Z,99.99
2017-09-10T02:24:14.822Z,99.99
2017-09-10T02:25:14.827Z,99.99
2017-09-10T02:26:14.882Z,99.99
2017-09-10T02:27:14.918Z,99.99
2017-09-10T02:28:14.635Z,99.99
2017-09-10T02:29:15.007Z,99.99
2017-09-10T02:30:15.079Z,99.99
2017-09-10T02:31:14.783Z,99.99
2017-09-10T02:32:14.812Z,99.99
2017-09-10T02:33:14.870Z,99.99
2017-09-10T02:34:15.230Z,99.99
2017-09-10T02:35:15.283Z,99.99
2017-09-10T02:36:15.322Z,99.99
2017-09-10T02:37:15.347Z,99.99
2017-09-10T02:38:15.379Z,99.99
2017-09-10T02:39:15.106Z,99.99
2017-09-10T02:40:15.778Z,99.99
2017-09-10T02:41:16.137Z,99.99
2017-09-10T02:42:16.120Z,99.99
2017-09-10T02:43:15.848Z,99.99
2017-09-10T02:44:16.512Z,99.99
2017-09-10T02:45:16.520Z,99.99
2017-09-10T02:46:16.576Z,99.99
2017-09-10T02:47:16.595Z,99.99
2017-09-10T02:48:16.940Z,99.99
2017-09-10T02:49:17.028Z,99.99
2017-09-10T02:50:17.712Z,99.99
2017-09-10T02:51:17.436Z,99.99
2017-09-10T02:52:18.110Z,99.99
2017-09-10T02:53:17.811Z,99.99
2017-09-10T02:54:18.213Z,99.99
2017-09-10T02:55:18.290Z,99.99
2017-09-10T02:56:18.320Z,99.99
2017-09-10T02:57:18.331Z,99.99
2017-09-10T02:58:18.707Z,99.99
2017-09-10T02:59:18.744Z,99.99
2017-09-10T03:00:18.768Z,99.99
2017-09-10T03:01:18.485Z,99.99
2017-09-10T03:02:18.572Z,99.99
2017-09-10T03:03:18.910Z,99.99
2017-09-10T03:04:18.913Z,99.99
2017-09-10T03:05:18.969Z,99.99
2017-09-10T03:06:18.669Z,99.99
2017-09-10T03:07:19.009Z,99.99
2017-09-10T03:08:19.406Z,99.99
2017-09-10T03:09:19.434Z,99.99
2017-09-10T03:10:19.510Z,99.99
2017-09-10T03:11:19.525Z,99.99
2017-09-10T03:12:19.930Z,99.99
2017-09-10T03:13:19.628Z,99.99
2017-09-10T03:14:20.310Z,99.99
2017-09-10T03:15:20.419Z,99.99
2017-09-10T03:16:20.006Z,99.99
2017-09-10T03:17:20.381Z,99.99
2017-09-10T03:18:20.124Z,99.99
2017-09-10T03:19:20.475Z,99.99
2017-09-10T03:20:20.325Z,99.99
2017-09-10T03:21:20.238Z,99.99
2017-09-10T03:22:20.551Z,99.99
2017-09-10T03:23:20.593Z,99.99
2017-09-10T03:24:20.300Z,99.99
2017-09-10T03:25:20.643Z,99.99
2017-09-10T03:26:20.987Z,99.99
2017-09-10T03:27:21.058Z,99.99
2017-09-10T03:28:21.425Z,99.99
2017-09-10T03:29:21.144Z,99.99
2017-09-10T03:30:21.847Z,99.99
2017-09-10T03:31:21.842Z,99.99
2017-09-10T03:32:21.918Z,99.99
2017-09-10T03:33:21.997Z,99.99
2017-09-10T03:34:22.024Z,99.99
2017-09-10T03:35:22.085Z,99.99
2017-09-10T03:36:22.156Z,99.99
2017-09-10T03:37:22.524Z,99.99
2017-09-10T03:38:22.535Z,99.99
2017-09-10T03:39:22.569Z,99.99
2017-09-10T03:40:22.592Z,99.99
2017-09-10T03:41:22.616Z,99.99
2017-09-10T03:42:22.649Z,99.99
2017-09-10T03:43:22.353Z,99.99
2017-09-10T03:44:23.090Z,99.99
2017-09-10T03:45:22.790Z,99.99
2017-09-10T03:46:23.144Z,99.99
2017-09-10T03:47:22.890Z,99.99
2017-09-10T03:48:23.232Z,99.99
2017-09-10T03:49:23.237Z,99.99
2017-09-10T03:50:23.289Z,99.99
2017-09-10T03:51:23.689Z,99.99
2017-09-10T03:52:23.717Z,99.99
2017-09-10T03:53:23.788Z,99.99
2017-09-10T03:54:23.447Z,99.99
2017-09-10T03:55:23.824Z,99.99
2017-09-10T03:56:23.548Z,99.99
2017-09-10T03:57:23.895Z,99.99
2017-09-10T03:58:23.660Z,99.99
2017-09-10T03:59:24.306Z,99.99
2017-09-10T04:00:24.344Z,99.99
2017-09-10T04:01:24.787Z,99.99
2017-09-10T04:02:24.834Z,99.99
2017-09-10T04:03:24.847Z,99.99
2017-09-10T04:04:24.880Z,99.99
2017-09-10T04:05:24.727Z,99.99
2017-09-10T04:06:24.949Z,99.99
2017-09-10T04:07:24.638Z,99.99
2017-09-10T04:08:25.385Z,99.99
2017-09-10T04:09:25.413Z,99.99
2017-09-10T04:10:25.446Z,99.99
2017-09-10T04:11:25.481Z,99.99
2017-09-10T04:12:25.510Z,99.99
2017-09-10T04:13:25.548Z,99.99
2017-09-10T04:14:25.952Z,99.99
2017-09-10T04:15:26.364Z,99.99
2017-09-10T04:16:26.393Z,99.99
2017-09-10T04:17:26.468Z,99.99
2017-09-10T04:18:26.829Z,99.99
2017-09-10T04:19:26.531Z,99.99
2017-09-10T04:20:26.559Z,99.99
2017-09-10T04:21:26.924Z,99.99
2017-09-10T04:22:26.953Z,99.99
2017-09-10T04:23:26.656Z,99.99
2017-09-10T04:24:27.101Z,99.99
2017-09-10T04:25:27.126Z,99.99
2017-09-10T04:26:27.158Z,99.99
2017-09-10T04:27:27.192Z,99.99
2017-09-10T04:28:27.227Z,99.99
2017-09-10T04:29:27.618Z,99.99
2017-09-10T04:30:27.659Z,99.99
2017-09-10T04:31:27.684Z,99.99
2017-09-10T04:32:28.097Z,99.99
2017-09-10T04:33:28.120Z,99.99
2017-09-10T04:34:28.151Z,99.99
2017-09-10T04:35:27.857Z,99.99
2017-09-10T04:36:28.232Z,99.99
2017-09-10T04:37:28.248Z,99.99
2017-09-10T04:38:27.955Z,99.99
2017-09-10T04:39:28.317Z,99.99
2017-09-10T04:40:28.340Z,99.99
2017-09-10T04:41:28.375Z,99.99
2017-09-10T04:42:28.409Z,99.99
2017-09-10T04:43:28.110Z,99.99
2017-09-10T04:44:28.469Z,99.99
2017-09-10T04:45:28.503Z,99.99
2017-09-10T04:46:28.622Z,99.99
2017-09-10T04:47:28.642Z,99.99
2017-09-10T04:48:28.740Z,99.99
2017-09-10T04:49:28.757Z,99.99
2017-09-10T04:50:28.788Z,99.99
2017-09-10T04:51:28.824Z,99.99
2017-09-10T04:52:28.941Z,99.99
2017-09-10T04:53:28.966Z,99.99
2017-09-10T04:54:29.367Z,99.99
2017-09-10T04:55:29.403Z,99.99
2017-09-10T04:56:29.814Z,99.99
2017-09-10T04:57:29.839Z,99.99
2017-09-10T04:58:29.536Z,99.99
2017-09-10T04:59:29.952Z,99.99
2017-09-10T05:00:29.936Z,99.99
2017-09-10T05:01:30.361Z,99.99
2017-09-10T05:02:30.391Z,99.99
2017-09-10T05:03:30.421Z,99.99
2017-09-10T05:04:30.853Z,99.99
2017-09-10T05:05:30.936Z,99.99
2017-09-10T05:06:31.365Z,99.99
2017-09-10T05:07:31.400Z,99.99
2017-09-10T05:08:31.803Z,99.99
2017-09-10T05:09:31.832Z,99.99
2017-09-10T05:10:31.871Z,99.99
2017-09-10T05:11:31.901Z,99.99
2017-09-10T05:12:31.933Z,99.99
2017-09-10T05:13:31.959Z,99.99
2017-09-10T05:14:31.992Z,99.99
2017-09-10T05:15:32.025Z,99.99
2017-09-10T05:16:32.059Z,99.99
2017-09-10T05:17:32.086Z,99.99
2017-09-10T05:18:32.179Z,99.99
2017-09-10T05:19:32.560Z,99.99
2017-09-10T05:20:32.928Z,99.99
2017-09-10T05:21:32.953Z,99.99
2017-09-10T05:22:32.982Z,99.99
2017-09-10T05:23:33.021Z,99.99
2017-09-10T05:24:33.060Z,99.99
2017-09-10T05:25:33.077Z,99.99
2017-09-10T05:26:32.781Z,99.99
2017-09-10T05:27:33.200Z,99.99
2017-09-10T05:28:32.901Z,99.99
2017-09-10T05:29:33.640Z,99.99
2017-09-10T05:30:33.668Z,99.99
2017-09-10T05:31:34.105Z,99.99
2017-09-10T05:32:34.135Z,99.99
2017-09-10T05:33:33.837Z,99.99
2017-09-10T05:34:34.192Z,99.99
2017-09-10T05:35:34.622Z,99.99
2017-09-10T05:36:34.648Z,99.99
2017-09-10T05:37:34.681Z,99.99
2017-09-10T05:38:34.711Z,99.99
2017-09-10T05:39:34.749Z,99.99
2017-09-10T05:40:34.776Z,99.99
2017-09-10T05:41:34.478Z,99.99
2017-09-10T05:42:34.857Z,99.99
2017-09-10T05:43:34.877Z,99.99
2017-09-10T05:44:34.909Z,99.99
2017-09-10T05:45:35.003Z,99.99
2017-09-10T05:46:35.134Z,99.99
2017-09-10T05:47:35.876Z,99.99
2017-09-10T05:48:35.903Z,99.99
2017-09-10T05:49:35.938Z,99.99
2017-09-10T05:50:35.972Z,99.99
2017-09-10T05:51:36.001Z,99.99
2017-09-10T05:52:36.041Z,99.99
2017-09-10T05:53:35.737Z,99.99
2017-09-10T05:54:36.097Z,99.99
2017-09-10T05:55:36.183Z,99.99
2017-09-10T05:56:36.217Z,99.99
2017-09-10T05:57:36.257Z,99.99
2017-09-10T05:58:35.953Z,99.99
2017-09-10T05:59:36.359Z,99.99
2017-09-10T06:00:36.765Z,99.99
2017-09-10T06:01:37.224Z,99.99
2017-09-10T06:02:37.683Z,99.99
2017-09-10T06:03:37.650Z,99.99
2017-09-10T06:04:37.752Z,99.99
2017-09-10T06:05:37.782Z,99.99
2017-09-10T06:06:37.818Z,99.99
2017-09-10T06:07:37.848Z,99.99
2017-09-10T06:08:37.882Z,99.99
2017-09-10T06:09:37.908Z,99.99
2017-09-10T06:10:38.344Z,99.99
2017-09-10T06:11:38.757Z,99.99
2017-09-10T06:12:38.786Z,99.99
2017-09-10T06:13:38.480Z,99.99
2017-09-10T06:14:39.224Z,99.99
2017-09-10T06:15:39.251Z,99.99
2017-09-10T06:16:39.663Z,99.99
2017-09-10T06:17:39.698Z,99.99
2017-09-10T06:18:39.731Z,99.99
2017-09-10T06:19:39.766Z,99.99
2017-09-10T06:20:39.797Z,99.99
2017-09-10T06:21:39.830Z,99.99
2017-09-10T06:22:39.862Z,99.99
2017-09-10T06:23:39.891Z,99.99
2017-09-10T06:24:39.670Z,99.99
2017-09-10T06:25:40.043Z,99.99
2017-09-10T06:26:40.452Z,99.99
2017-09-10T06:27:40.481Z,99.99
2017-09-10T06:28:40.518Z,99.99
2017-09-10T06:29:40.552Z,99.99
2017-09-10T06:30:40.665Z,99.99
2017-09-10T06:31:41.106Z,99.99
2017-09-10T06:32:41.143Z,99.99
2017-09-10T06:33:41.169Z,99.99
2017-09-10T06:34:40.871Z,99.99
2017-09-10T06:35:41.238Z,99.99
2017-09-10T06:36:40.942Z,99.99
2017-09-10T06:37:41.301Z,99.99
2017-09-10T06:38:41.341Z,99.99
2017-09-10T06:39:41.040Z,99.99
2017-09-10T06:40:41.444Z,99.99
2017-09-10T06:41:42.229Z,99.99
2017-09-10T06:42:42.328Z,99.99
2017-09-10T06:43:42.360Z,99.99
2017-09-10T06:44:42.144Z,99.99
2017-09-10T06:45:42.871Z,99.99
2017-09-10T06:46:43.310Z,99.99
2017-09-10T06:47:43.405Z,99.99
2017-09-10T06:48:43.792Z,99.99
2017-09-10T06:49:44.224Z,99.99
2017-09-10T06:50:44.243Z,99.99
2017-09-10T06:51:44.612Z,99.99
2017-09-10T06:52:44.650Z,99.99
2017-09-10T06:53:44.344Z,99.99
2017-09-10T06:54:44.712Z,99.99
2017-09-10T06:55:44.749Z,99.99
2017-09-10T06:56:44.781Z,99.99
2017-09-10T06:57:44.483Z,99.99
2017-09-10T06:58:45.232Z,99.99
2017-09-10T06:59:45.267Z,99.99
2017-09-10T07:00:45.295Z,99.99
2017-09-10T07:01:45.333Z,99.99
2017-09-10T07:02:45.361Z,99.99
2017-09-10T07:03:45.393Z,99.99
2017-09-10T07:04:45.099Z,99.87
2017-09-10T07:05:45.464Z,99.39
2017-09-10T07:06:45.498Z,99.49
2017-09-10T07:07:45.540Z,98.72
2017-09-10T07:08:45.568Z,98.1
2017-09-10T07:09:45.601Z,97.24
2017-09-10T07:10:45.304Z,97.33
2017-09-10T07:11:46.047Z,96.7
2017-09-10T07:12:46.076Z,96.51
2017-09-10T07:13:46.168Z,95.07
2017-09-10T07:14:46.201Z,95.6
2017-09-10T07:15:46.328Z,95.75
2017-09-10T07:16:46.028Z,95.65
2017-09-10T07:17:46.758Z,95.6
2017-09-10T07:18:46.793Z,95.7
2017-09-10T07:19:46.818Z,94.98
2017-09-10T07:20:46.887Z,94.73
2017-09-10T07:21:46.890Z,94.73
2017-09-10T07:22:46.922Z,94.26
2017-09-10T07:23:46.960Z,92.38
2017-09-10T07:24:46.996Z,91.22
2017-09-10T07:25:47.444Z,90.59
2017-09-10T07:26:47.473Z,90.59
2017-09-10T07:27:47.511Z,90.06
2017-09-10T07:28:47.918Z,88.57
2017-09-10T07:29:47.958Z,87.41
2017-09-10T07:30:48.384Z,86.98
2017-09-10T07:31:48.411Z,86.78
2017-09-10T07:32:48.119Z,86.11
2017-09-10T07:33:48.155Z,86.21
2017-09-10T07:34:48.918Z,86.21
2017-09-10T07:35:48.956Z,86.4
2017-09-10T07:36:49.395Z,86.69
2017-09-10T07:37:49.101Z,87.12
2017-09-10T07:38:49.533Z,87.7
2017-09-10T07:39:49.608Z,88.24
2017-09-10T07:40:50.336Z,88.33
2017-09-10T07:41:50.046Z,88.81
2017-09-10T07:42:50.406Z,88.71
2017-09-10T07:43:50.453Z,88.04
2017-09-10T07:44:50.481Z,88.04
2017-09-10T07:45:50.515Z,88.53
2017-09-10T07:46:50.219Z,89.01
2017-09-10T07:47:50.317Z,88.71
2017-09-10T07:48:50.723Z,88.77
2017-09-10T07:49:51.163Z,89.06
2017-09-10T07:50:51.194Z,89.1
2017-09-10T07:51:51.295Z,89.1
2017-09-10T07:52:51.667Z,89.01
2017-09-10T07:53:51.368Z,88.91
2017-09-10T07:54:51.801Z,88.81
2017-09-10T07:55:51.838Z,88.33
2017-09-10T07:56:51.872Z,88.04
2017-09-10T07:57:51.965Z,87.85
2017-09-10T07:58:52.001Z,88.14
2017-09-10T07:59:52.032Z,88.09
2017-09-10T08:00:52.129Z,87.03
2017-09-10T08:01:52.482Z,86.21
2017-09-10T08:02:52.511Z,86.59
2017-09-10T08:03:52.558Z,85.43
2017-09-10T08:04:52.590Z,84.52
2017-09-10T08:05:52.294Z,84.22
2017-09-10T08:06:52.663Z,83.01
2017-09-10T08:07:52.698Z,82.82
2017-09-10T08:08:52.400Z,82.18
2017-09-10T08:09:52.810Z,79.14
2017-09-10T08:10:52.913Z,78.59
2017-09-10T08:11:52.952Z,78.15
2017-09-10T08:12:53.051Z,76.01
2017-09-10T08:13:53.087Z,75.07
2017-09-10T08:14:53.117Z,73.85
2017-09-10T08:15:53.519Z,73.95
2017-09-10T08:16:53.564Z,72.73
2017-09-10T08:17:53.602Z,71.5
2017-09-10T08:18:53.637Z,69.6
2017-09-10T08:19:53.731Z,69.67
2017-09-10T08:20:53.439Z,70.89
2017-09-10T08:21:53.862Z,71.78
2017-09-10T08:22:54.230Z,73.1
2017-09-10T08:23:53.943Z,73.94
2017-09-10T08:24:54.364Z,75
2017-09-10T08:25:54.730Z,74.75
2017-09-10T08:26:54.830Z,73.91
2017-09-10T08:27:54.593Z,72.79
2017-09-10T08:28:54.694Z,70.89
2017-09-10T08:29:54.799Z,70.15
2017-09-10T08:30:55.548Z,69.41
2017-09-10T08:31:55.975Z,68.92
2017-09-10T08:32:56.105Z,68.57
2017-09-10T08:33:56.588Z,68.73
2017-09-10T08:34:56.697Z,67.95
2017-09-10T08:35:57.462Z,67.57
2017-09-10T08:36:57.483Z,67.11
2017-09-10T08:37:57.528Z,65.24
2017-09-10T08:38:57.570Z,61.87
2017-09-10T08:39:57.977Z,60.95
2017-09-10T08:40:58.022Z,58.87
2017-09-10T08:41:58.062Z,56.71
2017-09-10T08:42:58.099Z,55.49
2017-09-10T08:43:57.805Z,53.52
2017-09-10T08:44:58.232Z,50.29
2017-09-10T08:45:58.274Z,49.07
2017-09-10T08:46:57.983Z,47.27
2017-09-10T08:47:58.024Z,46.13
2017-09-10T08:48:58.786Z,45.84
2017-09-10T08:49:58.887Z,45.74
2017-09-10T08:50:59.309Z,46.53
2017-09-10T08:51:59.348Z,45.62
2017-09-10T08:52:59.388Z,44.76
2017-09-10T08:53:59.897Z,44.46
2017-09-10T08:54:59.939Z,44.56
2017-09-10T08:55:59.649Z,44.73
2017-09-10T08:57:00.025Z,45.45
2017-09-10T08:58:00.063Z,45.9
2017-09-10T08:59:00.479Z,47.37
2017-09-10T09:00:00.517Z,45.7
2017-09-10T09:01:00.601Z,45.36
2017-09-10T09:02:00.310Z,44.89
2017-09-10T09:03:00.686Z,44.07
2017-09-10T09:04:00.730Z,43.2
2017-09-10T09:05:00.442Z,41.67
2017-09-10T09:06:01.011Z,41.91
2017-09-10T09:07:01.445Z,40.74
2017-09-10T09:08:01.486Z,40.66
2017-09-10T09:09:02.272Z,40.37
2017-09-10T09:10:02.384Z,41.71
2017-09-10T09:11:02.099Z,42.16
2017-09-10T09:12:02.511Z,41.27
2017-09-10T09:13:02.226Z,40.9
2017-09-10T09:14:02.267Z,39.04
2017-09-10T09:15:02.374Z,39.38
2017-09-10T09:16:03.225Z,39.09
2017-09-10T09:17:03.273Z,39.4
2017-09-10T09:18:02.980Z,38.9
2017-09-10T09:19:03.125Z,36.85
2017-09-10T09:20:03.309Z,38.43
2017-09-10T09:21:03.618Z,38.63
2017-09-10T09:22:03.333Z,38.92
2017-09-10T09:23:03.374Z,38.25
2017-09-10T09:24:03.468Z,37.77
2017-09-10T09:25:03.906Z,37.87
2017-09-10T09:26:03.947Z,37.58
2017-09-10T09:27:03.990Z,37.2
2017-09-10T09:28:04.066Z,37.4
2017-09-10T09:29:03.750Z,38.15
2017-09-10T09:30:04.186Z,37.74
2017-09-10T09:31:03.901Z,39.03
2017-09-10T09:32:04.278Z,37.76
2017-09-10T09:33:04.456Z,37.98
2017-09-10T09:34:04.765Z,37.6
2017-09-10T09:35:04.853Z,37.87
2017-09-10T09:36:04.787Z,37.94
2017-09-10T09:37:05.514Z,38.61
2017-09-10T09:38:05.564Z,39.65
2017-09-10T09:39:05.643Z,41.43
2017-09-10T09:40:05.684Z,42.53
2017-09-10T09:41:06.232Z,45.05
2017-09-10T09:42:07.017Z,46.36
2017-09-10T09:43:06.714Z,46.26
2017-09-10T09:44:07.497Z,45.32
2017-09-10T09:45:07.676Z,44.12
2017-09-10T09:46:08.048Z,44.31
2017-09-10T09:47:08.170Z,42.65
2017-09-10T09:48:08.609Z,42.37
2017-09-10T09:49:08.652Z,42.41
2017-09-10T09:50:08.363Z,41.56
2017-09-10T09:51:08.737Z,40.25
2017-09-10T09:52:08.782Z,39.11
2017-09-10T09:53:08.499Z,38.26
2017-09-10T09:54:08.612Z,37.57
2017-09-10T09:55:09.031Z,38.45
2017-09-10T09:56:09.471Z,39.12
2017-09-10T09:57:09.513Z,41.61
2017-09-10T09:58:09.559Z,44.16
2017-09-10T09:59:09.273Z,46.79
2017-09-10T10:00:09.717Z,49.02
2017-09-10T10:01:09.758Z,50.68
2017-09-10T10:02:09.804Z,52.02
2017-09-10T10:03:09.804Z,52.28
2017-09-10T10:04:09.885Z,51.9
2017-09-10T10:05:09.930Z,50.51
2017-09-10T10:06:09.969Z,49.02
2017-09-10T10:07:10.008Z,46.37
2017-09-10T10:08:10.082Z,45.19
2017-09-10T10:09:10.458Z,43.41
2017-09-10T10:10:10.882Z,41.63
2017-09-10T10:11:10.926Z,39.42
2017-09-10T10:12:10.963Z,39.65
2017-09-10T10:13:11.001Z,39.11
2017-09-10T10:14:11.047Z,37.84
2017-09-10T10:15:11.091Z,37.56
2017-09-10T10:16:11.129Z,37.98
2017-09-10T10:17:11.176Z,36.62
2017-09-10T10:18:10.880Z,36.35
2017-09-10T10:19:10.927Z,36.26
2017-09-10T10:20:10.970Z,36.07
2017-09-10T10:21:11.382Z,36.03
2017-09-10T10:22:11.488Z,36.71
2017-09-10T10:23:11.846Z,36.1
2017-09-10T10:24:12.559Z,36.61
2017-09-10T10:25:12.604Z,35.63
2017-09-10T10:26:13.022Z,34.56
2017-09-10T10:27:13.062Z,34.97
2017-09-10T10:28:13.098Z,35.55
2017-09-10T10:29:13.198Z,36.9
2017-09-10T10:30:13.235Z,39.09
2017-09-10T10:31:13.282Z,40.37
2017-09-10T10:32:13.319Z,42.06
2017-09-10T10:33:13.360Z,44.31
2017-09-10T10:34:13.070Z,45.89
2017-09-10T10:35:13.182Z,46.99
2017-09-10T10:36:13.603Z,46.41
2017-09-10T10:37:13.645Z,45.69
2017-09-10T10:38:13.688Z,44.09
2017-09-10T10:39:13.725Z,41.8
2017-09-10T10:40:13.764Z,41.27
2017-09-10T10:41:13.806Z,39.56
2017-09-10T10:42:13.505Z,37.73
2017-09-10T10:43:14.243Z,37.45
2017-09-10T10:44:13.957Z,38.75
2017-09-10T10:45:14.395Z,37.29
2017-09-10T10:46:14.438Z,36.4
2017-09-10T10:47:14.472Z,35.99
2017-09-10T10:48:14.290Z,38.4
2017-09-10T10:49:14.552Z,40.03
2017-09-10T10:50:14.657Z,41.56
2017-09-10T10:51:15.413Z,42.58
2017-09-10T10:52:15.121Z,44.46
2017-09-10T10:53:16.861Z,46.31
2017-09-10T10:54:17.305Z,47.9
2017-09-10T10:55:16.452Z,50.46
2017-09-10T10:56:16.166Z,50.53
2017-09-10T10:57:16.534Z,51.36
2017-09-10T10:58:16.579Z,52.59
2017-09-10T10:59:16.613Z,51.17
2017-09-10T11:00:16.808Z,48.93
2017-09-10T11:01:16.692Z,46.8
2017-09-10T11:02:16.733Z,45.03
2017-09-10T11:03:16.770Z,42.1
2017-09-10T11:04:16.813Z,41.29
2017-09-10T11:05:16.616Z,39.78
2017-09-10T11:06:17.038Z,38.81
2017-09-10T11:07:17.076Z,38.73
2017-09-10T11:08:17.114Z,39.32
2017-09-10T11:09:17.152Z,39.78
2017-09-10T11:10:16.862Z,40.56
2017-09-10T11:11:17.352Z,40.47
2017-09-10T11:12:17.755Z,40.47
2017-09-10T11:13:17.794Z,40.53
2017-09-10T11:14:17.831Z,41.64
2017-09-10T11:15:17.868Z,41.9
2017-09-10T11:16:17.578Z,41.98
2017-09-10T11:17:17.615Z,42.84
2017-09-10T11:18:18.066Z,42.86
2017-09-10T11:19:18.096Z,42.1
2017-09-10T11:20:17.808Z,41.51
2017-09-10T11:21:18.246Z,41.92
2017-09-10T11:22:18.679Z,41.55
2017-09-10T11:23:19.088Z,41.74
2017-09-10T11:24:19.128Z,43.82
2017-09-10T11:25:19.587Z,45.59
2017-09-10T11:26:19.627Z,46.88
2017-09-10T11:27:19.662Z,49.05
2017-09-10T11:28:19.700Z,50.82
2017-09-10T11:29:19.795Z,52.5
2017-09-10T11:30:19.831Z,54.2
2017-09-10T11:31:19.865Z,55.89
2017-09-10T11:32:19.917Z,57.29
2017-09-10T11:33:19.947Z,58.23
2017-09-10T11:34:19.986Z,59.36
2017-09-10T11:35:20.021Z,60.11
2017-09-10T11:36:20.091Z,60.37
2017-09-10T11:37:20.812Z,59.63
2017-09-10T11:38:20.842Z,59.27
2017-09-10T11:39:20.885Z,59.49
2017-09-10T11:40:21.301Z,58.91
2017-09-10T11:41:21.334Z,58.23
2017-09-10T11:42:21.378Z,57.7
2017-09-10T11:43:21.157Z,56.21
2017-09-10T11:44:21.896Z,55.29
2017-09-10T11:45:21.605Z,54.08
2017-09-10T11:46:21.642Z,52.84
2017-09-10T11:47:22.015Z,52.58
2017-09-10T11:48:22.426Z,53.45
2017-09-10T11:49:22.460Z,53.85
2017-09-10T11:50:22.496Z,53.81
2017-09-10T11:51:22.539Z,54.64
2017-09-10T11:52:22.573Z,55.19
2017-09-10T11:53:22.617Z,56.3
2017-09-10T11:54:23.050Z,57.34
2017-09-10T11:55:23.086Z,57.9
2017-09-10T11:56:23.125Z,57.32
2017-09-10T11:57:22.829Z,58.26
2017-09-10T11:58:22.930Z,59.78
2017-09-10T11:59:23.673Z,60.27
2017-09-10T12:00:23.716Z,60.62
2017-09-10T12:01:23.419Z,60.91
2017-09-10T12:02:24.169Z,61.4
2017-09-10T12:03:24.217Z,61.4
2017-09-10T12:04:24.670Z,62.17
2017-09-10T12:05:24.954Z,62.82
2017-09-10T12:06:24.154Z,63.37
2017-09-10T12:07:24.765Z,62.98
2017-09-10T12:08:24.893Z,63.53
2017-09-10T12:09:24.798Z,63.05
2017-09-10T12:10:25.225Z,63.31
2017-09-10T12:11:25.295Z,63.98
2017-09-10T12:12:25.095Z,64.56
2017-09-10T12:13:25.120Z,64.85
2017-09-10T12:14:25.671Z,64.27
2017-09-10T12:15:25.678Z,63.4
2017-09-10T12:16:26.205Z,64.05
2017-09-10T12:17:25.765Z,65.3
2017-09-10T12:18:26.207Z,65.27
2017-09-10T12:19:26.336Z,65.85
2017-09-10T12:20:26.381Z,65.59
2017-09-10T12:21:26.411Z,65.78
2017-09-10T12:22:26.819Z,66.08
2017-09-10T12:23:26.861Z,66.53
2017-09-10T12:24:26.576Z,65.88
2017-09-10T12:25:27.055Z,65.5
2017-09-10T12:26:27.074Z,65.59
2017-09-10T12:27:27.382Z,65.69
2017-09-10T12:28:26.803Z,65.78
2017-09-10T12:29:27.269Z,65.88
2017-09-10T12:30:27.651Z,65.2
2017-09-10T12:31:27.754Z,65.3
2017-09-10T12:32:27.790Z,65.78
2017-09-10T12:33:28.165Z,65.5
2017-09-10T12:34:28.583Z,65.01
2017-09-10T12:35:28.358Z,65.08
2017-09-10T12:36:28.184Z,64.98
2017-09-10T12:37:28.542Z,64.79
2017-09-10T12:38:28.580Z,65.37
2017-09-10T12:39:28.613Z,65.27
2017-09-10T12:40:28.327Z,65.95
2017-09-10T12:41:28.784Z,66.59
2017-09-10T12:42:28.802Z,67.07
2017-09-10T12:43:28.837Z,67.23
2017-09-10T12:44:29.277Z,68.29
2017-09-10T12:45:28.980Z,68.49
2017-09-10T12:46:29.009Z,69.61
2017-09-10T12:47:29.456Z,70.09
2017-09-10T12:48:29.163Z,70.28
2017-09-10T12:49:29.534Z,70.28
2017-09-10T12:50:29.628Z,70.57
2017-09-10T12:51:29.667Z,70.57
2017-09-10T12:52:29.707Z,70.57
2017-09-10T12:53:29.743Z,71.7
2017-09-10T12:54:29.780Z,71.98
2017-09-10T12:55:29.879Z,72.18
2017-09-10T12:56:30.310Z,72.18